sensor_id;sensor_type;location;lat;lon;timestamp;temperature;humidity
6756;DHT22;3415;51.148;7.014;2023-02-28T00:01:45;-0.20;1.00
6756;DHT22;3415;51.148;7.014;2023-02-28T00:04:12;-0.20;1.00
6756;DHT22;3415;51.148;7.014;2023-02-28T00:06:39;-0.20;1.00
6756;DHT22;3415;51.148;7.014;2023-02-28T00:09:08;-0.20;1.00
6756;DHT22;3415;51.148;7.014;2023-02-28T00:11:35;-0.20;1.00
6756;DHT22;3415;51.148;7.014;2023-02-28T00:14:03;-0.20;1.00
6756;DHT22;3415;51.148;7.014;2023-02-28T00:16:30;-0.30;1.00
6756;DHT22;3415;51.148;7.014;2023-02-28T00:18:57;-0.20;1.00
6756;DHT22;3415;51.148;7.014;2023-02-28T00:21:24;-0.30;1.00
6756;DHT22;3415;51.148;7.014;2023-02-28T00:23:51;-0.30;1.00
6756;DHT22;3415;51.148;7.014;2023-02-28T00:26:20;-0.30;1.00
6756;DHT22;3415;51.148;7.014;2023-02-28T00:28:46;-0.40;1.00
6756;DHT22;3415;51.148;7.014;2023-02-28T00:31:13;-0.30;1.00
6756;DHT22;3415;51.148;7.014;2023-02-28T00:33:40;-0.40;1.00
6756;DHT22;3415;51.148;7.014;2023-02-28T00:36:09;-0.30;1.00
6756;DHT22;3415;51.148;7.014;2023-02-28T00:38:37;-0.30;1.00
6756;DHT22;3415;51.148;7.014;2023-02-28T00:41:04;-0.30;1.00
6756;DHT22;3415;51.148;7.014;2023-02-28T00:43:33;-0.40;1.00
6756;DHT22;3415;51.148;7.014;2023-02-28T00:46:01;-0.30;1.00
6756;DHT22;3415;51.148;7.014;2023-02-28T00:48:27;-0.40;1.00
6756;DHT22;3415;51.148;7.014;2023-02-28T00:50:54;-0.40;1.00
6756;DHT22;3415;51.148;7.014;2023-02-28T00:53:21;-0.30;1.00
6756;DHT22;3415;51.148;7.014;2023-02-28T00:55:49;-0.30;1.00
6756;DHT22;3415;51.148;7.014;2023-02-28T00:58:16;-0.30;1.00
6756;DHT22;3415;51.148;7.014;2023-02-28T01:00:44;-0.20;1.00
6756;DHT22;3415;51.148;7.014;2023-02-28T01:03:15;-0.20;1.00
6756;DHT22;3415;51.148;7.014;2023-02-28T01:05:42;-0.30;1.00
6756;DHT22;3415;51.148;7.014;2023-02-28T01:08:08;-0.40;1.00
6756;DHT22;3415;51.148;7.014;2023-02-28T01:10:35;-0.40;1.00
6756;DHT22;3415;51.148;7.014;2023-02-28T01:13:03;-0.40;1.00
6756;DHT22;3415;51.148;7.014;2023-02-28T01:15:30;-0.50;1.00
6756;DHT22;3415;51.148;7.014;2023-02-28T01:17:59;-0.50;1.00
6756;DHT22;3415;51.148;7.014;2023-02-28T01:20:26;-0.60;1.00
6756;DHT22;3415;51.148;7.014;2023-02-28T01:22:53;-0.60;1.00
6756;DHT22;3415;51.148;7.014;2023-02-28T01:27:47;-0.60;1.00
6756;DHT22;3415;51.148;7.014;2023-02-28T01:30:14;-0.80;1.00
6756;DHT22;3415;51.148;7.014;2023-02-28T01:32:40;-0.70;1.00
6756;DHT22;3415;51.148;7.014;2023-02-28T01:35:09;-0.80;1.00
6756;DHT22;3415;51.148;7.014;2023-02-28T01:37:36;-0.90;1.00
6756;DHT22;3415;51.148;7.014;2023-02-28T01:40:03;-1.00;1.00
6756;DHT22;3415;51.148;7.014;2023-02-28T01:42:30;-1.00;1.00
6756;DHT22;3415;51.148;7.014;2023-02-28T01:45:04;-1.10;1.00
6756;DHT22;3415;51.148;7.014;2023-02-28T01:47:35;-1.20;1.00
6756;DHT22;3415;51.148;7.014;2023-02-28T01:50:06;-1.20;1.00
6756;DHT22;3415;51.148;7.014;2023-02-28T01:52:35;-1.20;1.00
6756;DHT22;3415;51.148;7.014;2023-02-28T01:55:04;-1.20;1.00
6756;DHT22;3415;51.148;7.014;2023-02-28T01:57:35;-1.20;1.00
6756;DHT22;3415;51.148;7.014;2023-02-28T02:00:06;-1.30;1.00
6756;DHT22;3415;51.148;7.014;2023-02-28T02:02:34;-1.30;1.00
6756;DHT22;3415;51.148;7.014;2023-02-28T02:05:04;-1.40;1.00
6756;DHT22;3415;51.148;7.014;2023-02-28T02:07:33;-1.40;1.00
6756;DHT22;3415;51.148;7.014;2023-02-28T02:10:05;-1.60;1.00
6756;DHT22;3415;51.148;7.014;2023-02-28T02:12:53;-1.60;1.00
6756;DHT22;3415;51.148;7.014;2023-02-28T02:15:27;-1.70;1.00
6756;DHT22;3415;51.148;7.014;2023-02-28T02:18:00;-1.80;1.00
6756;DHT22;3415;51.148;7.014;2023-02-28T02:24:21;-1.90;1.00
6756;DHT22;3415;51.148;7.014;2023-02-28T02:27:06;-1.90;1.00
6756;DHT22;3415;51.148;7.014;2023-02-28T02:29:42;-1.90;1.00
6756;DHT22;3415;51.148;7.014;2023-02-28T02:35:25;-2.00;1.00
6756;DHT22;3415;51.148;7.014;2023-02-28T02:37:57;-1.90;1.00
6756;DHT22;3415;51.148;7.014;2023-02-28T02:40:33;-1.90;1.00
6756;DHT22;3415;51.148;7.014;2023-02-28T02:43:03;-1.90;1.00
6756;DHT22;3415;51.148;7.014;2023-02-28T02:45:35;-1.90;1.00
6756;DHT22;3415;51.148;7.014;2023-02-28T02:48:06;-1.90;1.00
6756;DHT22;3415;51.148;7.014;2023-02-28T02:50:37;-1.90;1.00
6756;DHT22;3415;51.148;7.014;2023-02-28T02:53:07;-2.00;1.00
6756;DHT22;3415;51.148;7.014;2023-02-28T02:55:38;-2.00;1.00
6756;DHT22;3415;51.148;7.014;2023-02-28T02:58:09;-2.00;1.00
6756;DHT22;3415;51.148;7.014;2023-02-28T03:00:41;-2.10;1.00
6756;DHT22;3415;51.148;7.014;2023-02-28T03:03:10;-2.10;1.00
6756;DHT22;3415;51.148;7.014;2023-02-28T03:05:42;-2.20;1.00
6756;DHT22;3415;51.148;7.014;2023-02-28T03:08:11;-2.20;1.00
6756;DHT22;3415;51.148;7.014;2023-02-28T03:10:39;-2.20;1.00
6756;DHT22;3415;51.148;7.014;2023-02-28T03:13:43;-2.30;1.00
6756;DHT22;3415;51.148;7.014;2023-02-28T03:16:40;-2.30;1.00
6756;DHT22;3415;51.148;7.014;2023-02-28T03:19:23;-2.40;1.00
6756;DHT22;3415;51.148;7.014;2023-02-28T03:22:07;-2.40;1.00
6756;DHT22;3415;51.148;7.014;2023-02-28T03:24:43;-2.40;1.00
6756;DHT22;3415;51.148;7.014;2023-02-28T03:27:19;-2.40;1.00
6756;DHT22;3415;51.148;7.014;2023-02-28T03:29:51;-2.40;1.00
6756;DHT22;3415;51.148;7.014;2023-02-28T03:32:25;-2.30;1.00
6756;DHT22;3415;51.148;7.014;2023-02-28T03:34:56;-2.30;1.00
6756;DHT22;3415;51.148;7.014;2023-02-28T03:37:28;-2.20;1.00
6756;DHT22;3415;51.148;7.014;2023-02-28T03:40:00;-2.00;1.00
6756;DHT22;3415;51.148;7.014;2023-02-28T03:42:31;-2.00;1.00
6756;DHT22;3415;51.148;7.014;2023-02-28T03:45:02;-1.90;1.00
6756;DHT22;3415;51.148;7.014;2023-02-28T03:47:37;-1.90;1.00
6756;DHT22;3415;51.148;7.014;2023-02-28T03:50:09;-1.80;1.00
6756;DHT22;3415;51.148;7.014;2023-02-28T03:52:43;-1.80;1.00
6756;DHT22;3415;51.148;7.014;2023-02-28T03:55:13;-1.70;1.00
6756;DHT22;3415;51.148;7.014;2023-02-28T03:57:46;-1.60;1.00
6756;DHT22;3415;51.148;7.014;2023-02-28T04:00:19;-1.50;1.00
6756;DHT22;3415;51.148;7.014;2023-02-28T04:02:47;-1.50;1.00
6756;DHT22;3415;51.148;7.014;2023-02-28T04:05:18;-1.60;1.00
6756;DHT22;3415;51.148;7.014;2023-02-28T04:07:46;-1.50;1.00
6756;DHT22;3415;51.148;7.014;2023-02-28T04:10:14;-1.50;1.00
6756;DHT22;3415;51.148;7.014;2023-02-28T04:12:42;-1.50;1.00
6756;DHT22;3415;51.148;7.014;2023-02-28T04:15:09;-1.50;1.00
6756;DHT22;3415;51.148;7.014;2023-02-28T04:17:36;-1.50;1.00
6756;DHT22;3415;51.148;7.014;2023-02-28T04:20:04;-1.50;1.00
6756;DHT22;3415;51.148;7.014;2023-02-28T04:22:35;-1.50;1.00
6756;DHT22;3415;51.148;7.014;2023-02-28T04:25:04;-1.50;1.00
6756;DHT22;3415;51.148;7.014;2023-02-28T04:27:31;-1.50;1.00
6756;DHT22;3415;51.148;7.014;2023-02-28T04:29:58;-1.40;1.00
6756;DHT22;3415;51.148;7.014;2023-02-28T04:32:25;-1.40;1.00
6756;DHT22;3415;51.148;7.014;2023-02-28T04:34:52;-1.40;1.00
6756;DHT22;3415;51.148;7.014;2023-02-28T04:37:19;-1.40;1.00
6756;DHT22;3415;51.148;7.014;2023-02-28T04:39:45;-1.50;1.00
6756;DHT22;3415;51.148;7.014;2023-02-28T04:42:14;-1.40;1.00
6756;DHT22;3415;51.148;7.014;2023-02-28T04:44:41;-1.40;1.00
6756;DHT22;3415;51.148;7.014;2023-02-28T04:47:08;-1.40;1.00
6756;DHT22;3415;51.148;7.014;2023-02-28T04:49:35;-1.40;1.00
6756;DHT22;3415;51.148;7.014;2023-02-28T04:52:02;-1.40;1.00
6756;DHT22;3415;51.148;7.014;2023-02-28T04:54:29;-1.40;1.00
6756;DHT22;3415;51.148;7.014;2023-02-28T04:56:55;-1.40;1.00
6756;DHT22;3415;51.148;7.014;2023-02-28T04:59:24;-1.40;1.00
6756;DHT22;3415;51.148;7.014;2023-02-28T05:01:51;-1.40;1.00
6756;DHT22;3415;51.148;7.014;2023-02-28T05:04:17;-1.40;1.00
6756;DHT22;3415;51.148;7.014;2023-02-28T05:06:44;-1.40;1.00
6756;DHT22;3415;51.148;7.014;2023-02-28T05:09:11;-1.40;1.00
6756;DHT22;3415;51.148;7.014;2023-02-28T05:11:38;-1.50;1.00
6756;DHT22;3415;51.148;7.014;2023-02-28T05:14:08;-1.50;1.00
6756;DHT22;3415;51.148;7.014;2023-02-28T05:16:37;-1.40;1.00
6756;DHT22;3415;51.148;7.014;2023-02-28T05:19:04;-1.40;1.00
6756;DHT22;3415;51.148;7.014;2023-02-28T05:21:33;-1.50;1.00
6756;DHT22;3415;51.148;7.014;2023-02-28T05:24:01;-1.50;1.00
6756;DHT22;3415;51.148;7.014;2023-02-28T05:26:28;1.70;1.00
6756;DHT22;3415;51.148;7.014;2023-02-28T05:28:55;-1.50;1.00
6756;DHT22;3415;51.148;7.014;2023-02-28T05:31:22;-1.50;1.00
6756;DHT22;3415;51.148;7.014;2023-02-28T05:33:51;-1.40;1.00
6756;DHT22;3415;51.148;7.014;2023-02-28T05:36:18;-1.60;1.00
6756;DHT22;3415;51.148;7.014;2023-02-28T05:38:46;-1.90;1.00
6756;DHT22;3415;51.148;7.014;2023-02-28T05:41:13;-1.60;1.00
6756;DHT22;3415;51.148;7.014;2023-02-28T05:43:40;-1.60;1.00
6756;DHT22;3415;51.148;7.014;2023-02-28T05:46:09;-1.70;1.00
6756;DHT22;3415;51.148;7.014;2023-02-28T05:48:37;-1.70;1.00
6756;DHT22;3415;51.148;7.014;2023-02-28T05:51:06;-1.70;1.00
6756;DHT22;3415;51.148;7.014;2023-02-28T05:53:33;-1.70;1.00
6756;DHT22;3415;51.148;7.014;2023-02-28T05:56:00;-1.70;1.00
6756;DHT22;3415;51.148;7.014;2023-02-28T05:58:28;-1.70;1.00
6756;DHT22;3415;51.148;7.014;2023-02-28T06:00:56;-1.70;1.00
6756;DHT22;3415;51.148;7.014;2023-02-28T06:03:23;-1.80;1.00
6756;DHT22;3415;51.148;7.014;2023-02-28T06:05:50;-1.80;1.00
6756;DHT22;3415;51.148;7.014;2023-02-28T06:08:19;-1.80;1.00
6756;DHT22;3415;51.148;7.014;2023-02-28T06:10:45;-1.90;1.00
6756;DHT22;3415;51.148;7.014;2023-02-28T06:13:12;-1.90;1.00
6756;DHT22;3415;51.148;7.014;2023-02-28T06:15:39;-2.00;1.00
6756;DHT22;3415;51.148;7.014;2023-02-28T06:18:06;-2.00;1.00
6756;DHT22;3415;51.148;7.014;2023-02-28T06:20:34;-2.00;1.00
6756;DHT22;3415;51.148;7.014;2023-02-28T06:23:01;-2.10;1.00
6756;DHT22;3415;51.148;7.014;2023-02-28T06:25:29;-2.00;1.00
6756;DHT22;3415;51.148;7.014;2023-02-28T06:27:57;-2.00;1.00
6756;DHT22;3415;51.148;7.014;2023-02-28T06:32:52;-1.80;1.00
6756;DHT22;3415;51.148;7.014;2023-02-28T06:35:20;-1.70;1.00
6756;DHT22;3415;51.148;7.014;2023-02-28T06:37:46;-1.70;1.00
6756;DHT22;3415;51.148;7.014;2023-02-28T06:40:14;-1.60;1.00
6756;DHT22;3415;51.148;7.014;2023-02-28T06:42:42;-1.50;1.00
6756;DHT22;3415;51.148;7.014;2023-02-28T06:45:10;-1.50;1.00
6756;DHT22;3415;51.148;7.014;2023-02-28T06:47:37;-1.50;1.00
6756;DHT22;3415;51.148;7.014;2023-02-28T06:50:05;-1.40;1.00
6756;DHT22;3415;51.148;7.014;2023-02-28T06:52:32;-1.30;1.00
6756;DHT22;3415;51.148;7.014;2023-02-28T06:55:02;-1.30;1.00
6756;DHT22;3415;51.148;7.014;2023-02-28T06:57:29;-1.30;1.00
6756;DHT22;3415;51.148;7.014;2023-02-28T06:59:59;-1.10;1.00
6756;DHT22;3415;51.148;7.014;2023-02-28T07:02:26;-1.10;1.00
6756;DHT22;3415;51.148;7.014;2023-02-28T07:04:53;-1.00;1.00
6756;DHT22;3415;51.148;7.014;2023-02-28T07:07:20;-1.00;1.00
6756;DHT22;3415;51.148;7.014;2023-02-28T07:09:47;-1.00;1.00
6756;DHT22;3415;51.148;7.014;2023-02-28T07:12:13;-0.90;1.00
6756;DHT22;3415;51.148;7.014;2023-02-28T07:14:40;-0.90;1.00
6756;DHT22;3415;51.148;7.014;2023-02-28T07:17:09;-0.70;1.00
6756;DHT22;3415;51.148;7.014;2023-02-28T07:19:37;-0.70;1.00
6756;DHT22;3415;51.148;7.014;2023-02-28T07:22:04;-0.60;1.00
6756;DHT22;3415;51.148;7.014;2023-02-28T07:24:31;-0.50;1.00
6756;DHT22;3415;51.148;7.014;2023-02-28T07:26:59;-0.50;1.00
6756;DHT22;3415;51.148;7.014;2023-02-28T07:29:26;-0.40;1.00
6756;DHT22;3415;51.148;7.014;2023-02-28T07:31:53;-0.40;1.00
6756;DHT22;3415;51.148;7.014;2023-02-28T07:34:22;-0.20;99.90
6756;DHT22;3415;51.148;7.014;2023-02-28T07:36:49;-0.10;99.90
6756;DHT22;3415;51.148;7.014;2023-02-28T07:39:19;-0.10;99.90
6756;DHT22;3415;51.148;7.014;2023-02-28T07:44:13;0.10;99.90
6756;DHT22;3415;51.148;7.014;2023-02-28T07:46:40;0.20;99.90
6756;DHT22;3415;51.148;7.014;2023-02-28T07:49:07;0.30;99.90
6756;DHT22;3415;51.148;7.014;2023-02-28T07:51:35;0.30;99.90
6756;DHT22;3415;51.148;7.014;2023-02-28T07:54:02;0.40;99.90
6756;DHT22;3415;51.148;7.014;2023-02-28T07:56:29;0.50;99.90
6756;DHT22;3415;51.148;7.014;2023-02-28T07:58:56;0.50;99.90
6756;DHT22;3415;51.148;7.014;2023-02-28T08:01:23;0.60;99.90
6756;DHT22;3415;51.148;7.014;2023-02-28T08:03:50;0.70;99.90
6756;DHT22;3415;51.148;7.014;2023-02-28T08:06:18;0.80;99.90
6756;DHT22;3415;51.148;7.014;2023-02-28T08:08:47;0.00;99.90
6756;DHT22;3415;51.148;7.014;2023-02-28T08:11:15;1.20;99.90
6756;DHT22;3415;51.148;7.014;2023-02-28T08:13:42;1.40;99.90
6756;DHT22;3415;51.148;7.014;2023-02-28T08:16:10;1.70;99.90
6756;DHT22;3415;51.148;7.014;2023-02-28T08:18:37;2.00;99.90
6756;DHT22;3415;51.148;7.014;2023-02-28T08:21:07;2.40;99.90
6756;DHT22;3415;51.148;7.014;2023-02-28T08:23:34;3.00;99.90
6756;DHT22;3415;51.148;7.014;2023-02-28T08:26:03;4.10;99.90
6756;DHT22;3415;51.148;7.014;2023-02-28T08:28:30;5.40;99.90
6756;DHT22;3415;51.148;7.014;2023-02-28T08:30:58;6.60;99.90
6756;DHT22;3415;51.148;7.014;2023-02-28T08:33:26;7.10;99.90
6756;DHT22;3415;51.148;7.014;2023-02-28T08:35:54;7.50;99.90
6756;DHT22;3415;51.148;7.014;2023-02-28T08:38:21;7.10;99.90
6756;DHT22;3415;51.148;7.014;2023-02-28T08:40:48;6.70;99.90
6756;DHT22;3415;51.148;7.014;2023-02-28T08:43:16;6.50;99.90
6756;DHT22;3415;51.148;7.014;2023-02-28T08:45:44;6.60;99.90
6756;DHT22;3415;51.148;7.014;2023-02-28T08:48:11;7.40;99.90
6756;DHT22;3415;51.148;7.014;2023-02-28T08:50:39;8.90;99.90
6756;DHT22;3415;51.148;7.014;2023-02-28T08:53:06;10.40;99.90
6756;DHT22;3415;51.148;7.014;2023-02-28T08:55:33;11.80;99.90
6756;DHT22;3415;51.148;7.014;2023-02-28T08:57:59;13.20;99.90
6756;DHT22;3415;51.148;7.014;2023-02-28T09:00:28;14.50;99.90
6756;DHT22;3415;51.148;7.014;2023-02-28T09:02:55;14.40;99.90
6756;DHT22;3415;51.148;7.014;2023-02-28T09:05:21;13.60;99.90
6756;DHT22;3415;51.148;7.014;2023-02-28T09:07:49;13.00;99.90
6756;DHT22;3415;51.148;7.014;2023-02-28T09:10:16;12.00;99.90
6756;DHT22;3415;51.148;7.014;2023-02-28T09:12:43;11.90;99.90
6756;DHT22;3415;51.148;7.014;2023-02-28T09:15:12;11.30;99.90
6756;DHT22;3415;51.148;7.014;2023-02-28T09:17:40;10.90;99.90
6756;DHT22;3415;51.148;7.014;2023-02-28T09:20:08;11.00;99.90
6756;DHT22;3415;51.148;7.014;2023-02-28T09:22:35;11.00;99.90
6756;DHT22;3415;51.148;7.014;2023-02-28T09:25:02;11.10;99.90
6756;DHT22;3415;51.148;7.014;2023-02-28T09:27:29;10.90;99.90
6756;DHT22;3415;51.148;7.014;2023-02-28T09:29:56;12.30;99.90
6756;DHT22;3415;51.148;7.014;2023-02-28T09:32:22;12.20;99.90
6756;DHT22;3415;51.148;7.014;2023-02-28T09:34:51;13.50;99.90
6756;DHT22;3415;51.148;7.014;2023-02-28T09:37:17;13.50;99.90
6756;DHT22;3415;51.148;7.014;2023-02-28T09:39:44;13.60;99.90
6756;DHT22;3415;51.148;7.014;2023-02-28T09:42:18;14.10;99.90
6756;DHT22;3415;51.148;7.014;2023-02-28T09:44:47;12.80;99.90
6756;DHT22;3415;51.148;7.014;2023-02-28T09:47:21;10.20;99.90
6756;DHT22;3415;51.148;7.014;2023-02-28T09:49:56;8.10;99.90
6756;DHT22;3415;51.148;7.014;2023-02-28T09:52:28;8.10;99.90
6756;DHT22;3415;51.148;7.014;2023-02-28T09:54:55;7.00;99.90
6756;DHT22;3415;51.148;7.014;2023-02-28T09:57:32;7.70;99.90
6756;DHT22;3415;51.148;7.014;2023-02-28T10:00:07;10.50;99.90
6756;DHT22;3415;51.148;7.014;2023-02-28T10:02:56;10.60;99.90
6756;DHT22;3415;51.148;7.014;2023-02-28T10:05:31;9.00;99.90
6756;DHT22;3415;51.148;7.014;2023-02-28T10:08:03;9.60;99.90
6756;DHT22;3415;51.148;7.014;2023-02-28T10:10:37;9.70;99.90
6756;DHT22;3415;51.148;7.014;2023-02-28T10:13:11;10.50;99.90
6756;DHT22;3415;51.148;7.014;2023-02-28T10:15:39;10.50;99.90
6756;DHT22;3415;51.148;7.014;2023-02-28T10:18:13;9.40;99.90
6756;DHT22;3415;51.148;7.014;2023-02-28T10:20:43;9.80;99.90
6756;DHT22;3415;51.148;7.014;2023-02-28T10:23:14;10.20;99.90
6756;DHT22;3415;51.148;7.014;2023-02-28T10:25:46;11.70;99.90
6756;DHT22;3415;51.148;7.014;2023-02-28T10:28:15;11.80;99.90
6756;DHT22;3415;51.148;7.014;2023-02-28T10:30:46;13.10;99.90
6756;DHT22;3415;51.148;7.014;2023-02-28T10:33:19;13.70;99.90
6756;DHT22;3415;51.148;7.014;2023-02-28T10:35:49;11.00;99.90
6756;DHT22;3415;51.148;7.014;2023-02-28T10:38:19;9.10;99.90
6756;DHT22;3415;51.148;7.014;2023-02-28T10:40:46;8.90;99.90
6756;DHT22;3415;51.148;7.014;2023-02-28T10:43:25;8.00;99.90
6756;DHT22;3415;51.148;7.014;2023-02-28T10:45:55;9.00;99.90
6756;DHT22;3415;51.148;7.014;2023-02-28T10:48:30;10.40;99.90
6756;DHT22;3415;51.148;7.014;2023-02-28T10:50:59;9.20;99.90
6756;DHT22;3415;51.148;7.014;2023-02-28T10:53:36;9.20;99.90
6756;DHT22;3415;51.148;7.014;2023-02-28T10:56:06;8.10;99.90
6756;DHT22;3415;51.148;7.014;2023-02-28T10:58:46;8.80;99.90
6756;DHT22;3415;51.148;7.014;2023-02-28T11:01:14;8.20;99.90
6756;DHT22;3415;51.148;7.014;2023-02-28T11:03:41;8.10;99.90
6756;DHT22;3415;51.148;7.014;2023-02-28T11:06:15;7.80;99.90
6756;DHT22;3415;51.148;7.014;2023-02-28T11:08:48;6.90;99.90
6756;DHT22;3415;51.148;7.014;2023-02-28T11:11:15;6.80;99.90
6756;DHT22;3415;51.148;7.014;2023-02-28T11:13:44;8.90;99.90
6756;DHT22;3415;51.148;7.014;2023-02-28T11:16:13;10.90;99.90
6756;DHT22;3415;51.148;7.014;2023-02-28T11:18:44;13.20;99.90
6756;DHT22;3415;51.148;7.014;2023-02-28T11:21:20;10.90;99.90
6756;DHT22;3415;51.148;7.014;2023-02-28T11:23:49;11.90;99.90
6756;DHT22;3415;51.148;7.014;2023-02-28T11:26:35;12.60;99.90
6756;DHT22;3415;51.148;7.014;2023-02-28T11:29:09;13.50;99.90
6756;DHT22;3415;51.148;7.014;2023-02-28T11:31:36;14.90;99.90
6756;DHT22;3415;51.148;7.014;2023-02-28T11:34:23;14.90;99.90
6756;DHT22;3415;51.148;7.014;2023-02-28T11:36:54;11.70;99.90
6756;DHT22;3415;51.148;7.014;2023-02-28T11:39:22;12.80;99.90
6756;DHT22;3415;51.148;7.014;2023-02-28T11:42:16;13.00;99.90
6756;DHT22;3415;51.148;7.014;2023-02-28T11:44:59;15.10;99.90
6756;DHT22;3415;51.148;7.014;2023-02-28T11:47:33;16.00;99.90
6756;DHT22;3415;51.148;7.014;2023-02-28T11:50:21;16.40;99.90
6756;DHT22;3415;51.148;7.014;2023-02-28T11:52:54;16.10;99.90
6756;DHT22;3415;51.148;7.014;2023-02-28T11:55:25;16.40;99.90
6756;DHT22;3415;51.148;7.014;2023-02-28T11:58:23;16.10;99.90
6756;DHT22;3415;51.148;7.014;2023-02-28T12:01:15;15.50;99.90
6756;DHT22;3415;51.148;7.014;2023-02-28T12:03:58;15.70;99.90
6756;DHT22;3415;51.148;7.014;2023-02-28T12:06:31;15.30;99.90
6756;DHT22;3415;51.148;7.014;2023-02-28T12:09:09;14.70;99.90
6756;DHT22;3415;51.148;7.014;2023-02-28T12:11:48;15.80;99.90
6756;DHT22;3415;51.148;7.014;2023-02-28T12:14:50;14.70;99.90
6756;DHT22;3415;51.148;7.014;2023-02-28T12:17:26;13.10;99.90
6756;DHT22;3415;51.148;7.014;2023-02-28T12:20:05;11.30;99.90
6756;DHT22;3415;51.148;7.014;2023-02-28T12:22:37;9.00;99.90
6756;DHT22;3415;51.148;7.014;2023-02-28T12:25:21;7.70;99.90
6756;DHT22;3415;51.148;7.014;2023-02-28T12:27:51;7.40;99.90
6756;DHT22;3415;51.148;7.014;2023-02-28T12:30:22;6.50;99.90
6756;DHT22;3415;51.148;7.014;2023-02-28T12:32:52;6.50;99.90
6756;DHT22;3415;51.148;7.014;2023-02-28T12:35:24;6.70;99.90
6756;DHT22;3415;51.148;7.014;2023-02-28T12:37:57;6.80;99.90
6756;DHT22;3415;51.148;7.014;2023-02-28T12:40:41;6.80;99.90
6756;DHT22;3415;51.148;7.014;2023-02-28T12:43:12;6.70;99.90
6756;DHT22;3415;51.148;7.014;2023-02-28T12:45:43;6.70;99.90
6756;DHT22;3415;51.148;7.014;2023-02-28T12:48:16;6.60;99.90
6756;DHT22;3415;51.148;7.014;2023-02-28T12:50:45;6.60;99.90
6756;DHT22;3415;51.148;7.014;2023-02-28T12:53:17;6.60;99.90
6756;DHT22;3415;51.148;7.014;2023-02-28T12:55:52;6.60;99.90
6756;DHT22;3415;51.148;7.014;2023-02-28T12:58:30;6.50;99.90
6756;DHT22;3415;51.148;7.014;2023-02-28T13:01:13;6.60;99.90
6756;DHT22;3415;51.148;7.014;2023-02-28T13:03:54;6.60;99.90
6756;DHT22;3415;51.148;7.014;2023-02-28T13:06:43;6.60;99.90
6756;DHT22;3415;51.148;7.014;2023-02-28T13:09:12;6.40;99.90
6756;DHT22;3415;51.148;7.014;2023-02-28T13:11:44;6.50;99.90
6756;DHT22;3415;51.148;7.014;2023-02-28T13:14:24;6.40;99.90
6756;DHT22;3415;51.148;7.014;2023-02-28T13:16:57;6.40;99.90
6756;DHT22;3415;51.148;7.014;2023-02-28T13:19:26;6.50;99.90
6756;DHT22;3415;51.148;7.014;2023-02-28T13:21:54;6.50;99.90
6756;DHT22;3415;51.148;7.014;2023-02-28T13:24:45;6.50;99.90
6756;DHT22;3415;51.148;7.014;2023-02-28T13:27:38;6.50;99.90
6756;DHT22;3415;51.148;7.014;2023-02-28T13:33:27;6.50;99.90
6756;DHT22;3415;51.148;7.014;2023-02-28T13:36:23;6.50;99.90
6756;DHT22;3415;51.148;7.014;2023-02-28T13:38:52;6.40;99.90
6756;DHT22;3415;51.148;7.014;2023-02-28T13:41:46;6.40;99.90
6756;DHT22;3415;51.148;7.014;2023-02-28T13:44:17;6.30;99.90
6756;DHT22;3415;51.148;7.014;2023-02-28T13:47:27;6.30;99.90
6756;DHT22;3415;51.148;7.014;2023-02-28T13:50:15;6.30;99.90
6756;DHT22;3415;51.148;7.014;2023-02-28T13:53:00;6.30;99.90
6756;DHT22;3415;51.148;7.014;2023-02-28T13:55:31;6.40;99.90
6756;DHT22;3415;51.148;7.014;2023-02-28T13:58:27;6.50;99.90
6756;DHT22;3415;51.148;7.014;2023-02-28T14:01:22;6.40;99.90
6756;DHT22;3415;51.148;7.014;2023-02-28T14:04:14;6.50;99.90
6756;DHT22;3415;51.148;7.014;2023-02-28T14:06:47;6.40;99.90
6756;DHT22;3415;51.148;7.014;2023-02-28T14:09:20;6.40;99.90
6756;DHT22;3415;51.148;7.014;2023-02-28T14:11:50;6.50;99.90
6756;DHT22;3415;51.148;7.014;2023-02-28T14:14:54;6.60;99.90
6756;DHT22;3415;51.148;7.014;2023-02-28T14:17:24;6.60;99.90
6756;DHT22;3415;51.148;7.014;2023-02-28T14:22:41;6.40;99.90
6756;DHT22;3415;51.148;7.014;2023-02-28T14:25:18;6.40;99.90
6756;DHT22;3415;51.148;7.014;2023-02-28T14:27:52;6.20;99.90
6756;DHT22;3415;51.148;7.014;2023-02-28T14:33:35;6.10;99.90
6756;DHT22;3415;51.148;7.014;2023-02-28T14:36:12;6.30;99.90
6756;DHT22;3415;51.148;7.014;2023-02-28T14:38:43;6.30;99.90
6756;DHT22;3415;51.148;7.014;2023-02-28T14:41:17;6.20;99.90
6756;DHT22;3415;51.148;7.014;2023-02-28T14:43:54;6.20;99.90
6756;DHT22;3415;51.148;7.014;2023-02-28T14:46:23;6.20;99.90
6756;DHT22;3415;51.148;7.014;2023-02-28T14:48:53;6.40;99.90
6756;DHT22;3415;51.148;7.014;2023-02-28T14:51:21;6.40;99.90
6756;DHT22;3415;51.148;7.014;2023-02-28T14:53:51;6.30;99.90
6756;DHT22;3415;51.148;7.014;2023-02-28T14:56:24;6.40;99.90
6756;DHT22;3415;51.148;7.014;2023-02-28T14:58:54;6.40;99.90
6756;DHT22;3415;51.148;7.014;2023-02-28T15:01:24;6.40;99.90
6756;DHT22;3415;51.148;7.014;2023-02-28T15:04:01;6.40;99.90
6756;DHT22;3415;51.148;7.014;2023-02-28T15:06:29;6.40;99.90
6756;DHT22;3415;51.148;7.014;2023-02-28T15:09:15;6.40;99.90
6756;DHT22;3415;51.148;7.014;2023-02-28T15:11:46;6.40;99.90
6756;DHT22;3415;51.148;7.014;2023-02-28T15:14:17;6.30;99.90
6756;DHT22;3415;51.148;7.014;2023-02-28T15:16:47;6.30;99.90
6756;DHT22;3415;51.148;7.014;2023-02-28T15:19:21;6.30;99.90
6756;DHT22;3415;51.148;7.014;2023-02-28T15:21:52;6.20;99.90
6756;DHT22;3415;51.148;7.014;2023-02-28T15:24:23;6.20;99.90
6756;DHT22;3415;51.148;7.014;2023-02-28T15:26:55;6.20;99.90
6756;DHT22;3415;51.148;7.014;2023-02-28T15:29:25;6.20;99.90
6756;DHT22;3415;51.148;7.014;2023-02-28T15:31:57;6.20;99.90
6756;DHT22;3415;51.148;7.014;2023-02-28T15:34:34;6.20;99.90
6756;DHT22;3415;51.148;7.014;2023-02-28T15:37:01;6.20;99.90
6756;DHT22;3415;51.148;7.014;2023-02-28T15:39:29;6.20;99.90
6756;DHT22;3415;51.148;7.014;2023-02-28T15:42:10;6.20;99.90
6756;DHT22;3415;51.148;7.014;2023-02-28T15:44:37;6.20;99.90
6756;DHT22;3415;51.148;7.014;2023-02-28T15:47:06;6.20;99.90
6756;DHT22;3415;51.148;7.014;2023-02-28T15:49:40;6.20;99.90
6756;DHT22;3415;51.148;7.014;2023-02-28T15:52:13;6.00;99.90
6756;DHT22;3415;51.148;7.014;2023-02-28T15:54:41;6.00;99.90
6756;DHT22;3415;51.148;7.014;2023-02-28T15:57:13;5.90;99.90
6756;DHT22;3415;51.148;7.014;2023-02-28T15:59:49;5.90;99.90
6756;DHT22;3415;51.148;7.014;2023-02-28T16:02:18;5.90;99.90
6756;DHT22;3415;51.148;7.014;2023-02-28T16:05:01;5.90;99.90
6756;DHT22;3415;51.148;7.014;2023-02-28T16:07:29;5.80;99.90
6756;DHT22;3415;51.148;7.014;2023-02-28T16:09:56;6.00;99.90
6756;DHT22;3415;51.148;7.014;2023-02-28T16:12:26;5.70;99.90
6756;DHT22;3415;51.148;7.014;2023-02-28T16:14:54;5.60;99.90
6756;DHT22;3415;51.148;7.014;2023-02-28T16:17:23;5.50;99.90
6756;DHT22;3415;51.148;7.014;2023-02-28T16:19:50;5.50;99.90
6756;DHT22;3415;51.148;7.014;2023-02-28T16:22:19;5.40;99.90
6756;DHT22;3415;51.148;7.014;2023-02-28T16:27:20;5.20;99.90
6756;DHT22;3415;51.148;7.014;2023-02-28T16:29:47;5.10;99.90
6756;DHT22;3415;51.148;7.014;2023-02-28T16:32:15;5.10;99.90
6756;DHT22;3415;51.148;7.014;2023-02-28T16:34:42;5.00;99.90
6756;DHT22;3415;51.148;7.014;2023-02-28T16:37:12;4.90;99.90
6756;DHT22;3415;51.148;7.014;2023-02-28T16:39:40;4.90;99.90
6756;DHT22;3415;51.148;7.014;2023-02-28T16:42:13;4.90;99.90
6756;DHT22;3415;51.148;7.014;2023-02-28T16:44:42;4.80;99.90
6756;DHT22;3415;51.148;7.014;2023-02-28T16:47:10;4.80;99.90
6756;DHT22;3415;51.148;7.014;2023-02-28T16:49:37;4.70;99.90
6756;DHT22;3415;51.148;7.014;2023-02-28T16:52:05;4.60;99.90
6756;DHT22;3415;51.148;7.014;2023-02-28T16:54:32;4.60;99.90
6756;DHT22;3415;51.148;7.014;2023-02-28T16:57:00;4.50;99.90
6756;DHT22;3415;51.148;7.014;2023-02-28T16:59:27;4.40;99.90
6756;DHT22;3415;51.148;7.014;2023-02-28T17:01:55;4.40;99.90
6756;DHT22;3415;51.148;7.014;2023-02-28T17:04:23;4.30;99.90
6756;DHT22;3415;51.148;7.014;2023-02-28T17:06:50;4.20;99.90